• Join FlightAware (Why Join?)
  • Login
  • US Flag GB Flag 
15:31 EDT


 

Airport Tracker/Info


-or-


 

Live Flight TrackerFlight Track Log ✈ N23123 ✈ 15-Jan-2014 ✈ KBGM - KITH

Flight Track Log - Related Links

Times and Time Zones

All times are in EST time to prevent confusion due to time zone crossing. See the N23123 flight status page for this flight to view local times or setup timezone preferences in your user account.

Time Position Orientation Groundspeed Altitude Reporting Facility
EST Latitude Longitude Course Direction KTS MPH feet Rate Location/Type
10:21 42.2715 -76.0857 284° West  Level Estimated
10:22 42.2986 -76.1160 320° Northwest  Level FlightAware Approximate
10:23 42.3257 -76.1462 320° Northwest  Level FlightAware Approximate
10:24 42.3528 -76.1765 320° Northwest  Level FlightAware Approximate
10:25 42.3799 -76.2068 320° Northwest  Level FlightAware Approximate
10:26 42.4070 -76.2371 320° Northwest  Level FlightAware Approximate
10:27 42.4231 -76.2794 294° West  Level Estimated
10:28 42.4393 -76.3217 285° West  Level Estimated
10:29 42.4543 -76.3647 295° West  Level FlightAware Approximate
10:30 42.4709 -76.4067 294° West  Level Estimated
10:31 42.4833 -76.4500 294° West  Level FlightAware Approximate
10:32 42.4914 -76.4587 294° West  Level Estimated
10:33 42.4914 -76.4587 294° West  Level Estimated
10:34 42.4914 -76.4587 294° West  Level Estimated
10:35 42.4914 -76.4587 294° West  Level Estimated
10:36 42.4914 -76.4587 294° West  Level Estimated
10:37 42.4914 -76.4587 294° West  Level Estimated
10:38 42.4914 -76.4587 294° West  Level Estimated
10:39 42.4914 -76.4587 294° West  Level Estimated
10:40 42.4914 -76.4587 294° West  Level Estimated
10:41 42.4914 -76.4587 294° West  Level Estimated
10:42 42.4914 -76.4587 294° West  Level Estimated
10:43 42.4914 -76.4587 294° West  Level Estimated
10:44 42.4914 -76.4587 294° West  Level Estimated
10:45 42.4914 -76.4587 294° West  Level Estimated
10:46 42.4914 -76.4587 294° West  Level Estimated
10:47 42.4914 -76.4587 294° West  Level Estimated
10:48 42.4914 -76.4587 294° West  Level Estimated
10:49 42.4914 -76.4587 294° West  Level Estimated